Change the Weather History Date:

Wednesday, October 16, 2013

  Actual Average (KEVV) Record (KEVV)
Temperature  
Mean Temperature 56 °F 58 °F  
Max Temperature 66 °F 70 °F 88 °F (1938)
Min Temperature 46 °F 45 °F 27 °F (1991)
Degree Days  
Heating Degree Days 8 8  
Month to date heating degree days 103  
Since 1 July heating degree days 150  
Cooling Degree Days 0 1  
Month to date cooling degree days 23  
Year to date cooling degree days 1389  
Growing Degree Days 6 (Base 50)    
Moisture  
Dew Point 49 °F    
Average Humidity 73    
Maximum Humidity 93    
Minimum Humidity 48    
Precipitation  
Precipitation 0.02 in 0.10 in 2.58 in (1928)
Month to date precipitation 1.62  
Year to date precipitation 35.59  
Snow  
Snow 0.00 in 0.00 in 0.00 in (2002)
Month to date snowfall 0.0  
Since 1 July snowfall 0.0  
Since 1 September snowfall 0.0  
Snow Depth -    
Sea Level Pressure  
Sea Level Pressure 29.98 in    
Wind  
Wind Speed 7 mph (WNW)    
Max Wind Speed 15 mph    
Max Gust Speed 20 mph    
Visibility 10 miles    
Events Rain    
T = Trace of Precipitation, MM = Missing Value Source: NWS Daily Summary

Daily Weather History Graph

Daily Weather History Graph

Search for Another Location

Airport or City:

Trip Planner

Search our weather history database for the weather conditions in past years. The results will help you decide how hot, cold, wet, or windy it might be!

Date:

Astronomy

Oct. 16, 2013 Rise Set
Actual Time 7:02 AM CDT 6:12 PM CDT
Civil Twilight 6:35 AM CDT 6:39 PM CDT
Nautical Twilight 6:05 AM CDT 7:10 PM CDT
Astronomical Twilight 5:34 AM CDT 7:40 PM CDT
Moon 4:51 PM CDT (10/16) 4:31 AM CDT (10/16)
Length of Visible Light 12h 03m
Length of Day
11h 10m
Waxing Gibbous, 94% of the Moon is Illuminated
Oct 16
Waxing Gibbous
Oct 18
Full
Oct 26
Last Quarter
Nov 3
New
Nov 9
First Quarter

Hourly Weather History & Observations

Time (CDT) Temp. Dew Point Humidity Pressure Visibility Wind Dir Wind Speed Gust Speed Precip Events Conditions
12:15 AM 66.6 °F 64.4 °F 93% 29.92 in 7.0 mi SSW 6.9 mph - N/A   Overcast
12:35 AM 66.7 °F 64.6 °F 93% 29.92 in 7.0 mi SSW 6.9 mph - N/A   Overcast
12:55 AM 66.7 °F 64.6 °F 93% 29.92 in 5.0 mi SSW 6.9 mph - N/A   Overcast
1:15 AM 66.7 °F 64.8 °F 93% 29.92 in 5.0 mi SW 9.2 mph - N/A   Overcast
1:35 AM 63.5 °F 61.5 °F 93% 29.94 in 3.0 mi NW 15.0 mph 19.6 mph 0.01 in   Drizzle
1:55 AM 61.7 °F 58.1 °F 88% 29.94 in 7.0 mi WNW 10.4 mph - 0.01 in   Light Drizzle
2:15 AM 61.2 °F 57.4 °F 87% 29.95 in 10.0 mi WNW 10.4 mph - N/A   Overcast
2:35 AM 60.3 °F 55.6 °F 85% 29.95 in 10.0 mi WNW 8.1 mph - N/A   Overcast
2:55 AM 60.1 °F 56.8 °F 89% 29.96 in 10.0 mi West 5.8 mph - N/A   Overcast
3:15 AM 59.9 °F 55.9 °F 87% 29.95 in 10.0 mi WNW 6.9 mph - N/A Rain Light Rain
3:35 AM 59.5 °F 55.2 °F 86% 29.96 in 10.0 mi WNW 5.8 mph - N/A   Overcast
3:55 AM 59.5 °F 54.0 °F 82% 29.96 in 10.0 mi West 6.9 mph - N/A   Overcast
4:15 AM 59.0 °F 54.0 °F 83% 29.97 in 10.0 mi WNW 4.6 mph - 0.01 in Rain Light Rain
4:35 AM 59.0 °F 53.1 °F 81% 29.97 in 10.0 mi NW 8.1 mph - 0.01 in   Overcast
4:55 AM 58.6 °F 52.7 °F 81% 29.97 in 10.0 mi WNW 5.8 mph - 0.01 in   Overcast
5:15 AM 58.5 °F 52.2 °F 80% 29.97 in 10.0 mi NW 9.2 mph - N/A   Overcast
5:35 AM 58.1 °F 51.3 °F 78% 29.97 in 10.0 mi NW 9.2 mph - N/A   Overcast
5:55 AM 57.7 °F 51.8 °F 81% 29.98 in 10.0 mi WNW 8.1 mph - N/A   Overcast
6:15 AM 57.2 °F 50.5 °F 78% 29.99 in 10.0 mi WNW 10.4 mph - N/A   Overcast
6:35 AM 56.7 °F 50.2 °F 79% 29.99 in 10.0 mi WNW 5.8 mph - N/A   Overcast
6:55 AM 56.3 °F 49.1 °F 77% 30.00 in 10.0 mi WNW 8.1 mph - N/A   Overcast
7:15 AM 55.6 °F 48.2 °F 76% 30.00 in 10.0 mi WNW 5.8 mph - N/A   Mostly Cloudy
7:35 AM 55.4 °F 48.0 °F 76% 30.01 in 10.0 mi WNW 5.8 mph - N/A   Mostly Cloudy
7:55 AM 55.4 °F 47.5 °F 75% 30.02 in 10.0 mi WNW 6.9 mph - N/A   Overcast
8:15 AM 55.4 °F 46.8 °F 73% 30.01 in 10.0 mi NW 5.8 mph - N/A   Overcast
8:35 AM 55.6 °F 46.8 °F 72% 30.02 in 10.0 mi WNW 4.6 mph - N/A   Overcast
8:55 AM 55.8 °F 46.4 °F 71% 30.02 in 10.0 mi WNW 5.8 mph - N/A   Mostly Cloudy
9:15 AM 56.3 °F 46.9 °F 71% 30.02 in 10.0 mi NW 5.8 mph - N/A   Mostly Cloudy
9:35 AM 56.5 °F 46.4 °F 69% 30.02 in 10.0 mi West 6.9 mph - N/A   Mostly Cloudy
9:55 AM 56.5 °F 45.3 °F 66% 30.02 in 10.0 mi NW 6.9 mph - N/A   Overcast
10:15 AM 56.8 °F 45.5 °F 66% 30.02 in 10.0 mi NW 5.8 mph - N/A   Overcast
10:35 AM 56.8 °F 45.5 °F 66% 30.02 in 10.0 mi NW 8.1 mph - N/A   Overcast
10:55 AM 56.8 °F 45.9 °F 67% 30.03 in 10.0 mi West 5.8 mph - N/A   Overcast
11:15 AM 56.3 °F 46.2 °F 69% 30.03 in 10.0 mi WNW 6.9 mph - N/A   Overcast
11:35 AM 56.5 °F 45.3 °F 66% 30.03 in 10.0 mi WNW 9.2 mph - N/A   Overcast
11:55 AM 57.0 °F 45.0 °F 64% 30.03 in 10.0 mi WNW 6.9 mph - N/A   Overcast
12:15 PM 58.1 °F 45.1 °F 62% 30.02 in 10.0 mi WNW 6.9 mph - N/A   Overcast
12:35 PM 57.9 °F 45.1 °F 62% 30.02 in 10.0 mi West 4.6 mph - N/A   Mostly Cloudy
12:55 PM 59.9 °F 46.8 °F 62% 30.01 in 10.0 mi WSW 4.6 mph - N/A   Scattered Clouds
1:15 PM 60.8 °F 45.9 °F 58% 30.00 in 10.0 mi West 6.9 mph - N/A   Clear
1:35 PM 62.6 °F 47.1 °F 57% 29.99 in 10.0 mi West 9.2 mph - N/A   Clear
1:55 PM 62.4 °F 46.4 °F 56% 29.98 in 10.0 mi NW 10.4 mph - N/A   Scattered Clouds
2:15 PM 63.9 °F 46.6 °F 53% 29.98 in 10.0 mi NNW 8.1 mph - N/A   Scattered Clouds
2:35 PM 64.6 °F 45.5 °F 50% 29.97 in 10.0 mi WNW 9.2 mph - N/A   Clear
2:55 PM 64.9 °F 45.5 °F 49% 29.97 in 10.0 mi NNW 6.9 mph - N/A   Clear
3:15 PM 65.1 °F 46.2 °F 50% 29.97 in 10.0 mi NW 5.8 mph - N/A   Clear
3:35 PM 66.0 °F 46.0 °F 48% 29.97 in 10.0 mi NNW 3.5 mph - N/A   Clear
3:55 PM 65.5 °F 46.0 °F 49% 29.97 in 10.0 mi WNW 5.8 mph - N/A   Clear
4:15 PM 64.6 °F 44.6 °F 48% 29.96 in 10.0 mi NNW 3.5 mph - N/A   Clear
4:35 PM 64.6 °F 45.3 °F 50% 29.96 in 10.0 mi WNW 5.8 mph - N/A   Clear
4:55 PM 64.6 °F 44.8 °F 49% 29.96 in 10.0 mi West 5.8 mph - N/A   Clear
5:15 PM 63.9 °F 44.8 °F 50% 29.96 in 10.0 mi NW 4.6 mph - N/A   Clear
5:35 PM 63.0 °F 45.1 °F 52% 29.95 in 10.0 mi WNW 3.5 mph - N/A   Clear
5:55 PM 62.1 °F 45.5 °F 55% 29.96 in 10.0 mi Calm Calm - N/A   Clear
6:15 PM 61.0 °F 45.9 °F 58% 29.96 in 10.0 mi Calm Calm - N/A   Clear
6:35 PM 57.2 °F 46.6 °F 68% 29.97 in 10.0 mi WNW 4.6 mph - N/A   Clear
6:55 PM 54.7 °F 47.1 °F 76% 29.97 in 10.0 mi WNW 4.6 mph - N/A   Clear
7:15 PM 53.8 °F 47.5 °F 79% 29.97 in 10.0 mi WNW 3.5 mph - N/A   Clear
7:35 PM 52.9 °F 47.5 °F 82% 29.98 in 10.0 mi WNW 4.6 mph - N/A   Clear
7:55 PM 52.5 °F 47.3 °F 82% 29.98 in 10.0 mi NW 3.5 mph - N/A   Clear
8:15 PM 52.2 °F 46.4 °F 81% 29.98 in 10.0 mi Calm Calm - N/A   Clear
8:35 PM 52.0 °F 46.0 °F 80% 29.99 in 10.0 mi Calm Calm - N/A   Clear
8:55 PM 50.5 °F 45.3 °F 82% 29.99 in 10.0 mi Calm Calm - N/A   Clear
9:15 PM 51.1 °F 45.9 °F 82% 29.99 in 10.0 mi NW 4.6 mph - N/A   Clear
9:35 PM 50.2 °F 45.0 °F 82% 30.00 in 10.0 mi NW 6.9 mph - N/A   Clear
9:55 PM 50.4 °F 45.5 °F 83% 30.00 in 10.0 mi NW 5.8 mph - N/A   Clear
10:15 PM 50.0 °F 45.1 °F 83% 30.00 in 10.0 mi NNW 5.8 mph - N/A   Clear
10:35 PM 50.7 °F 45.0 °F 81% 30.00 in 10.0 mi NNW 6.9 mph - N/A   Clear
10:55 PM 50.0 °F 44.8 °F 82% 30.01 in 10.0 mi NNW 5.8 mph - N/A   Clear
11:15 PM 48.6 °F 44.2 °F 85% 30.00 in 10.0 mi North 4.6 mph - N/A   Clear
11:35 PM 47.5 °F 44.4 °F 89% 30.00 in 10.0 mi North 4.6 mph - N/A   Clear
11:55 PM 46.9 °F 44.2 °F 90% 29.99 in 10.0 mi North 4.6 mph - N/A   Clear